WGN6165 LEMD-LIRF
Flight info
| Callsign | WGN6165 |
|---|---|
| Flight time | N/A |
| Altitude | 36000 |
| Route | PINAR N870 BCN N725 OSPOK/N0480F370 DCT NOLVI DCT ORKUM/N0479F380 DCT ELSAG DCT ALG DCT TINTO DCT VALMA |
| Aircraft | MD11/H-SDE1E2E3FGHIJ2J3J4J5M1RWXYZ/LB1D1 |
Departure
| Time | 2026-04-30 21:43 |
|---|---|
| Airport | Adolfo Suárez Madrid–Barajas Airport (LEMD) |
Arrival
| Time | N/A |
|---|---|
| Airport | Rome–Fiumicino Leonardo da Vinci International Airport (LIRF) |
| Time | Latitude | Longitude | Altitude | Speed | Heading |
|---|---|---|---|---|---|
| 2026-04-30 21:17 | 40.46043 | -3.56221 | 1975 ft | 0 kts | 360° |
| 2026-04-30 21:32 | 40.46073 | -3.56224 | 1970 ft | 6 kts | 349° |
| 2026-04-30 21:32 | 40.46107 | -3.56266 | 1972 ft | 8 kts | 296° |
| 2026-04-30 21:32 | 40.46113 | -3.56343 | 1976 ft | 9 kts | 268° |
| 2026-04-30 21:32 | 40.46111 | -3.56438 | 1976 ft | 12 kts | 272° |
| 2026-04-30 21:33 | 40.46160 | -3.56505 | 1982 ft | 11 kts | 347° |
| 2026-04-30 21:33 | 40.46289 | -3.56539 | 1983 ft | 5 kts | 300° |
| 2026-04-30 21:33 | 40.46324 | -3.56584 | 1982 ft | 9 kts | 336° |
| 2026-04-30 21:34 | 40.46398 | -3.56590 | 1981 ft | 13 kts | 2° |
| 2026-04-30 21:34 | 40.46585 | -3.56575 | 1982 ft | 20 kts | 3° |
| 2026-04-30 21:34 | 40.46752 | -3.56563 | 1984 ft | 23 kts | 3° |
| 2026-04-30 21:35 | 40.46924 | -3.56549 | 1983 ft | 26 kts | 3° |
| 2026-04-30 21:35 | 40.47100 | -3.56589 | 1988 ft | 26 kts | 334° |
| 2026-04-30 21:35 | 40.47251 | -3.56730 | 1996 ft | 27 kts | 322° |
| 2026-04-30 21:35 | 40.47395 | -3.56878 | 1997 ft | 25 kts | 322° |
| 2026-04-30 21:36 | 40.47519 | -3.57004 | 2000 ft | 21 kts | 322° |
| 2026-04-30 21:36 | 40.47632 | -3.57118 | 2002 ft | 21 kts | 322° |
| 2026-04-30 21:37 | 40.48016 | -3.57509 | 2006 ft | 27 kts | 322° |
| 2026-04-30 21:37 | 40.48163 | -3.57660 | 2003 ft | 26 kts | 322° |
| 2026-04-30 21:37 | 40.48307 | -3.57804 | 2000 ft | 26 kts | 323° |
| 2026-04-30 21:37 | 40.48451 | -3.57933 | 1999 ft | 23 kts | 327° |
| 2026-04-30 21:38 | 40.48564 | -3.58023 | 2007 ft | 16 kts | 333° |
| 2026-04-30 21:38 | 40.48670 | -3.58052 | 2007 ft | 17 kts | 355° |
| 2026-04-30 21:38 | 40.48759 | -3.57997 | 2006 ft | 10 kts | 62° |
| 2026-04-30 21:38 | 40.48764 | -3.57891 | 2002 ft | 16 kts | 91° |
| 2026-04-30 21:39 | 40.48766 | -3.57709 | 1999 ft | 24 kts | 88° |
| 2026-04-30 21:39 | 40.48766 | -3.57509 | 1997 ft | 10 kts | 86° |
| 2026-04-30 21:39 | 40.48796 | -3.57467 | 1995 ft | 7 kts | 22° |
| 2026-04-30 21:39 | 40.48848 | -3.57496 | 1984 ft | 9 kts | 304° |
| 2026-04-30 21:40 | 40.48864 | -3.57583 | 1997 ft | 10 kts | 297° |
| 2026-04-30 21:40 | 40.48931 | -3.57619 | 1997 ft | 10 kts | 355° |
| 2026-04-30 21:40 | 40.48996 | -3.57620 | 1997 ft | 9 kts | 360° |
| 2026-04-30 21:40 | 40.49052 | -3.57619 | 1997 ft | 8 kts | 1° |
| 2026-04-30 21:41 | 40.49124 | -3.57618 | 1997 ft | 12 kts | 1° |
| 2026-04-30 21:41 | 40.49195 | -3.57547 | 1997 ft | 16 kts | 57° |
| 2026-04-30 21:41 | 40.49259 | -3.57457 | 1992 ft | 12 kts | 19° |
| 2026-04-30 21:41 | 40.49328 | -3.57451 | 1990 ft | 6 kts | 360° |
| 2026-04-30 21:42 | 40.49364 | -3.57451 | 1990 ft | 7 kts | 360° |
| 2026-04-30 21:42 | 40.49475 | -3.57451 | 1994 ft | 35 kts | 359° |
| 2026-04-30 21:42 | 40.50008 | -3.57456 | 1994 ft | 117 kts | 359° |
| 2026-04-30 21:42 | 40.51042 | -3.57465 | 2005 ft | 179 kts | 359° |
| 2026-04-30 21:43 | 40.52331 | -3.57483 | 2694 ft | 183 kts | 359° |
| 2026-04-30 21:43 | 40.53165 | -3.57497 | 3404 ft | 181 kts | 359° |
| 2026-04-30 21:43 | 40.54892 | -3.57416 | 4558 ft | 188 kts | 10° |
| 2026-04-30 21:43 | 40.56173 | -3.57013 | 5339 ft | 199 kts | 15° |
| 2026-04-30 21:44 | 40.57637 | -3.56483 | 5552 ft | 235 kts | 15° |
| 2026-04-30 21:44 | 40.59248 | -3.55887 | 6212 ft | 243 kts | 15° |
| 2026-04-30 21:44 | 40.60896 | -3.55271 | 6935 ft | 247 kts | 15° |
| 2026-04-30 21:44 | 40.62556 | -3.54650 | 7622 ft | 249 kts | 14° |
| 2026-04-30 21:45 | 40.64255 | -3.54260 | 8267 ft | 251 kts | 5° |
| 2026-04-30 21:45 | 40.66010 | -3.54058 | 8897 ft | 254 kts | 3° |
| 2026-04-30 21:45 | 40.67783 | -3.53891 | 9506 ft | 256 kts | 4° |
| 2026-04-30 21:45 | 40.69555 | -3.53458 | 9965 ft | 267 kts | 19° |
| 2026-04-30 21:46 | 40.71187 | -3.52078 | 10098 ft | 295 kts | 46° |
| 2026-04-30 21:46 | 40.72529 | -3.49905 | 10236 ft | 325 kts | 55° |
| 2026-04-30 21:46 | 40.73843 | -3.47360 | 10374 ft | 357 kts | 57° |
| 2026-04-30 21:46 | 40.75241 | -3.44548 | 11051 ft | 367 kts | 57° |
| 2026-04-30 21:47 | 40.76654 | -3.41709 | 11876 ft | 374 kts | 57° |
| 2026-04-30 21:47 | 40.78092 | -3.38850 | 12678 ft | 381 kts | 57° |
| 2026-04-30 21:47 | 40.79581 | -3.35915 | 13480 ft | 388 kts | 56° |
| 2026-04-30 21:47 | 40.81106 | -3.32929 | 14227 ft | 394 kts | 56° |
| 2026-04-30 21:48 | 40.82651 | -3.29912 | 14950 ft | 399 kts | 56° |
| 2026-04-30 21:48 | 40.84215 | -3.26861 | 15664 ft | 403 kts | 56° |
| 2026-04-30 21:48 | 40.85582 | -3.23599 | 16320 ft | 406 kts | 68° |
| 2026-04-30 21:48 | 40.86520 | -3.20064 | 16986 ft | 410 kts | 75° |
| 2026-04-30 21:49 | 40.87256 | -3.16437 | 17644 ft | 414 kts | 77° |
| 2026-04-30 21:49 | 40.87938 | -3.12711 | 18302 ft | 418 kts | 77° |
| 2026-04-30 21:49 | 40.88620 | -3.08951 | 18895 ft | 422 kts | 77° |
| 2026-04-30 21:49 | 40.89319 | -3.05172 | 19491 ft | 425 kts | 77° |
| 2026-04-30 21:50 | 40.90033 | -3.01401 | 20078 ft | 427 kts | 77° |
| 2026-04-30 21:50 | 40.90763 | -2.97606 | 20638 ft | 430 kts | 77° |
| 2026-04-30 21:50 | 40.91509 | -2.93765 | 21216 ft | 432 kts | 77° |
| 2026-04-30 21:50 | 40.92263 | -2.89893 | 21809 ft | 435 kts | 77° |
| 2026-04-30 21:51 | 40.92765 | -2.87316 | 22201 ft | 437 kts | 77° |
| 2026-04-30 21:51 | 40.93525 | -2.83416 | 22802 ft | 440 kts | 77° |
| 2026-04-30 21:51 | 40.94290 | -2.79476 | 23402 ft | 443 kts | 77° |
| 2026-04-30 21:51 | 40.95058 | -2.75513 | 23952 ft | 446 kts | 77° |
| 2026-04-30 21:52 | 40.95832 | -2.71509 | 24455 ft | 450 kts | 77° |
| 2026-04-30 21:52 | 40.96601 | -2.67520 | 24946 ft | 454 kts | 77° |
| 2026-04-30 21:52 | 40.97384 | -2.63454 | 25452 ft | 457 kts | 77° |
| 2026-04-30 21:52 | 40.98167 | -2.59353 | 25959 ft | 461 kts | 77° |
| 2026-04-30 21:53 | 40.98951 | -2.55213 | 26462 ft | 465 kts | 77° |
| 2026-04-30 21:53 | 40.99741 | -2.51042 | 26953 ft | 469 kts | 77° |
| 2026-04-30 21:53 | 41.00539 | -2.46834 | 27462 ft | 473 kts | 77° |
| 2026-04-30 21:53 | 41.01344 | -2.42598 | 27948 ft | 477 kts | 77° |
| 2026-04-30 21:54 | 41.02156 | -2.38321 | 28409 ft | 480 kts | 77° |
| 2026-04-30 21:54 | 41.02973 | -2.34010 | 28920 ft | 484 kts | 77° |
| 2026-04-30 21:54 | 41.03788 | -2.29706 | 29363 ft | 488 kts | 77° |
| 2026-04-30 21:54 | 41.04619 | -2.25317 | 29818 ft | 492 kts | 77° |
| 2026-04-30 21:55 | 41.05458 | -2.20880 | 30245 ft | 496 kts | 77° |
| 2026-04-30 21:55 | 41.06298 | -2.16434 | 30612 ft | 499 kts | 77° |
| 2026-04-30 21:55 | 41.07141 | -2.11962 | 30965 ft | 501 kts | 77° |
| 2026-04-30 21:55 | 41.07973 | -2.07527 | 31369 ft | 501 kts | 78° |
| 2026-04-30 21:56 | 41.08811 | -2.03030 | 31840 ft | 500 kts | 78° |
| 2026-04-30 21:56 | 41.09643 | -1.98553 | 32312 ft | 498 kts | 78° |
| 2026-04-30 21:56 | 41.10471 | -1.94097 | 32770 ft | 497 kts | 78° |
| 2026-04-30 21:56 | 41.11286 | -1.89703 | 33192 ft | 496 kts | 78° |
| 2026-04-30 21:57 | 41.12108 | -1.85264 | 33611 ft | 495 kts | 78° |
| 2026-04-30 21:57 | 41.12930 | -1.80820 | 34026 ft | 494 kts | 78° |
| 2026-04-30 21:57 | 41.13749 | -1.76382 | 34365 ft | 494 kts | 78° |
| 2026-04-30 21:57 | 41.14558 | -1.71993 | 34658 ft | 494 kts | 78° |
| 2026-04-30 21:58 | 41.15371 | -1.67563 | 34933 ft | 494 kts | 78° |
| 2026-04-30 21:58 | 41.16186 | -1.63117 | 35234 ft | 494 kts | 78° |
| 2026-04-30 21:58 | 41.16998 | -1.58682 | 35521 ft | 493 kts | 78° |
| 2026-04-30 21:58 | 41.17807 | -1.54245 | 35812 ft | 493 kts | 78° |
| 2026-04-30 21:59 | 41.18606 | -1.49855 | 35941 ft | 494 kts | 78° |
| 2026-04-30 21:59 | 41.19409 | -1.45411 | 35976 ft | 494 kts | 78° |
| 2026-04-30 22:00 | 41.21776 | -1.32130 | 35985 ft | 494 kts | 78° |
| 2026-04-30 22:00 | 41.24156 | -1.18802 | 35981 ft | 494 kts | 78° |
| 2026-04-30 22:01 | 41.25741 | -1.09898 | 35978 ft | 494 kts | 78° |
| 2026-04-30 22:01 | 41.27314 | -1.01018 | 35976 ft | 494 kts | 78° |
| 2026-04-30 22:02 | 41.28883 | -0.92116 | 35980 ft | 493 kts | 78° |
| 2026-04-30 22:02 | 41.30435 | -0.83261 | 35971 ft | 493 kts | 78° |
| 2026-04-30 22:03 | 41.31991 | -0.74341 | 35973 ft | 494 kts | 78° |
| 2026-04-30 22:03 | 41.33530 | -0.65482 | 35975 ft | 494 kts | 78° |
| 2026-04-30 22:04 | 41.35053 | -0.56560 | 35976 ft | 494 kts | 81° |
| 2026-04-30 22:04 | 41.35586 | -0.47475 | 35976 ft | 492 kts | 92° |
| 2026-04-30 22:05 | 41.35528 | -0.42902 | 35978 ft | 492 kts | 93° |
| 2026-04-30 22:05 | 41.35324 | -0.33826 | 35981 ft | 493 kts | 93° |
| 2026-04-30 22:06 | 41.35187 | -0.24676 | 35986 ft | 494 kts | 92° |
| 2026-04-30 22:06 | 41.35062 | -0.10967 | 35990 ft | 495 kts | 92° |
| 2026-04-30 22:07 | 41.34978 | -0.01790 | 35994 ft | 496 kts | 92° |
| 2026-04-30 22:07 | 41.34883 | 0.07410 | 35997 ft | 497 kts | 92° |
| 2026-04-30 22:08 | 41.34780 | 0.16552 | 36002 ft | 497 kts | 92° |
| 2026-04-30 22:08 | 41.34655 | 0.25775 | 36006 ft | 498 kts | 93° |
| 2026-04-30 22:09 | 41.34515 | 0.35001 | 36095 ft | 498 kts | 93° |
| 2026-04-30 22:09 | 41.34381 | 0.44210 | 36128 ft | 503 kts | 92° |
| 2026-04-30 22:10 | 41.34244 | 0.53562 | 36138 ft | 504 kts | 92° |
| 2026-04-30 22:10 | 41.34094 | 0.62859 | 36135 ft | 505 kts | 93° |
| 2026-04-30 22:11 | 41.33855 | 0.76898 | 36150 ft | 506 kts | 93° |
| 2026-04-30 22:12 | 41.33692 | 0.86272 | 36148 ft | 506 kts | 93° |
| 2026-04-30 22:12 | 41.33523 | 0.95585 | 36160 ft | 507 kts | 93° |
| 2026-04-30 22:13 | 41.33345 | 1.04994 | 36159 ft | 507 kts | 93° |
| 2026-04-30 22:13 | 41.33159 | 1.14332 | 36151 ft | 507 kts | 93° |
| 2026-04-30 22:14 | 41.32946 | 1.23736 | 36160 ft | 508 kts | 93° |
| 2026-04-30 22:14 | 41.32734 | 1.33147 | 36160 ft | 508 kts | 93° |
| 2026-04-30 22:15 | 41.32524 | 1.42523 | 36149 ft | 509 kts | 93° |
| 2026-04-30 22:15 | 41.32308 | 1.51939 | 36151 ft | 509 kts | 93° |
| 2026-04-30 22:16 | 41.32084 | 1.61350 | 36154 ft | 509 kts | 93° |
| 2026-04-30 22:17 | 41.31590 | 1.80174 | 36154 ft | 510 kts | 93° |
| 2026-04-30 22:17 | 41.31206 | 1.94335 | 36150 ft | 511 kts | 93° |
| 2026-04-30 22:18 | 41.30789 | 2.08497 | 36160 ft | 511 kts | 96° |
| 2026-04-30 22:19 | 41.28915 | 2.22345 | 36156 ft | 509 kts | 105° |
| 2026-04-30 22:20 | 41.26504 | 2.36098 | 36144 ft | 510 kts | 104° |
| 2026-04-30 22:20 | 41.24197 | 2.49902 | 36145 ft | 510 kts | 104° |
| 2026-04-30 22:21 | 41.22677 | 2.59060 | 36146 ft | 511 kts | 104° |
| 2026-04-30 22:21 | 41.21134 | 2.68285 | 36142 ft | 511 kts | 104° |
| 2026-04-30 22:22 | 41.19578 | 2.77529 | 36147 ft | 512 kts | 104° |
| 2026-04-30 22:22 | 41.18018 | 2.86747 | 36151 ft | 512 kts | 104° |
| 2026-04-30 22:23 | 41.16453 | 2.95947 | 36150 ft | 513 kts | 104° |
| 2026-04-30 22:23 | 41.14871 | 3.05196 | 36147 ft | 513 kts | 104° |
| 2026-04-30 22:24 | 41.13288 | 3.14408 | 36151 ft | 513 kts | 104° |
| 2026-04-30 22:24 | 41.11668 | 3.23636 | 36154 ft | 513 kts | 104° |
| 2026-04-30 22:25 | 41.10044 | 3.32816 | 36150 ft | 514 kts | 104° |
| 2026-04-30 22:25 | 41.08420 | 3.42074 | 36152 ft | 514 kts | 104° |
| 2026-04-30 22:26 | 41.05993 | 3.55874 | 36150 ft | 514 kts | 104° |
| 2026-04-30 22:27 | 41.04344 | 3.65111 | 36143 ft | 514 kts | 104° |
| 2026-04-30 22:27 | 41.01866 | 3.78959 | 36146 ft | 515 kts | 104° |
| 2026-04-30 22:28 | 40.99372 | 3.92749 | 36144 ft | 515 kts | 104° |
| 2026-04-30 22:29 | 40.96018 | 4.11193 | 36141 ft | 515 kts | 104° |
| 2026-04-30 22:31 | 40.90080 | 4.43441 | 36137 ft | 516 kts | 104° |
| 2026-04-30 22:32 | 40.85802 | 4.66463 | 36140 ft | 517 kts | 102° |
| 2026-04-30 22:33 | 40.83492 | 4.90006 | 36140 ft | 518 kts | 96° |
| 2026-04-30 22:35 | 40.81320 | 5.13587 | 36132 ft | 518 kts | 97° |
| 2026-04-30 22:36 | 40.79522 | 5.32387 | 36871 ft | 510 kts | 97° |
| 2026-04-30 22:36 | 40.79073 | 5.37031 | 37089 ft | 511 kts | 97° |
| 2026-04-30 22:37 | 40.77252 | 5.55703 | 37135 ft | 515 kts | 97° |
| 2026-04-30 22:38 | 40.75397 | 5.74387 | 37137 ft | 514 kts | 97° |
| 2026-04-30 22:39 | 40.73939 | 5.88396 | 37134 ft | 513 kts | 97° |
| 2026-04-30 22:40 | 40.71052 | 6.16300 | 37133 ft | 511 kts | 97° |
| 2026-04-30 22:41 | 40.68626 | 6.39423 | 37130 ft | 509 kts | 97° |
| 2026-04-30 22:43 | 40.65831 | 6.65503 | 37131 ft | 507 kts | 97° |
| 2026-04-30 22:44 | 40.63825 | 6.83878 | 37134 ft | 505 kts | 97° |
| 2026-04-30 22:45 | 40.60752 | 7.11204 | 37132 ft | 503 kts | 98° |
| 2026-04-30 22:47 | 40.57625 | 7.38460 | 37136 ft | 500 kts | 98° |
| 2026-04-30 22:48 | 40.56873 | 7.56558 | 37141 ft | 497 kts | 82° |
| 2026-04-30 22:49 | 40.59476 | 7.83607 | 37146 ft | 496 kts | 82° |
| 2026-04-30 22:51 | 40.61705 | 8.10597 | 37162 ft | 495 kts | 83° |
| 2026-04-30 22:52 | 40.63059 | 8.24070 | 37155 ft | 492 kts | 73° |
| 2026-04-30 22:53 | 40.68176 | 8.40678 | 37160 ft | 490 kts | 64° |
| 2026-04-30 22:53 | 40.72189 | 8.53066 | 37160 ft | 490 kts | 66° |
| 2026-04-30 22:55 | 40.78662 | 8.73826 | 37155 ft | 488 kts | 66° |
| 2026-04-30 22:56 | 40.83791 | 8.90379 | 37163 ft | 487 kts | 66° |
| 2026-04-30 22:57 | 40.90149 | 9.11034 | 37174 ft | 485 kts | 66° |
| 2026-04-30 22:58 | 40.95182 | 9.27535 | 37185 ft | 484 kts | 67° |
| 2026-04-30 22:59 | 41.02657 | 9.52348 | 37183 ft | 484 kts | 67° |